DW5321 Paradera AW current weather conditions

sailwx.info

Wind from 078 at 6 knots gusting 11

Air temperature 27.8° C
Dewpoint 25.6° C

Last reported at 2014-Aug-20 03:42 UTC.
Time now 2014-Aug-20 04:56 UTC

Location: N 12°33' W 070°00'.
View on Google Maps.

See reports from other nearby stations

  
Tides and Currents Weather Stations Pressure Air Temp Water Temp Dewpoint Dewpoint Depression Visibility Wind Speed Wind Dir Waves Ship Positions
date/time (UTC)wind fromknots sea level pressurealtimeterstation pressurevisibilityair tempwater tempwave heightnotes
2014-Aug-20 03:42 078 6 gusting 11 27.8
2014-Aug-20 03:27 079 6 gusting 11 27.8
2014-Aug-20 03:12 077 6 gusting 11 27.8
2014-Aug-20 02:57 078 3 gusting 10 27.8
2014-Aug-20 02:42 047 5 gusting 10 27.8
2014-Aug-20 02:27 077 7 gusting 13 27.8
2014-Aug-20 02:12 085 6 gusting 11 27.8
2014-Aug-20 01:57 079 6 gusting 12 27.8
2014-Aug-20 01:42 082 6 gusting 11 27.8
2014-Aug-20 01:27 064 6 gusting 14 27.8
2014-Aug-20 01:12 063 5 gusting 11 27.8
2014-Aug-20 00:57 098 6 gusting 12 27.8
2014-Aug-20 00:42 079 6 gusting 13 27.8
2014-Aug-20 00:27 093 6 gusting 13 27.8
2014-Aug-20 00:12 061 5 gusting 12 27.8
2014-Aug-19 23:57 096 6 gusting 12 27.8
2014-Aug-19 23:42 040 7 gusting 14 27.8
2014-Aug-19 23:27 071 6 gusting 13 27.8
2014-Aug-19 22:57 129 8 gusting 14 28.3
2014-Aug-19 22:42 095 6 gusting 12 28.3
2014-Aug-19 22:27 069 8 gusting 13 28.9
2014-Aug-19 22:12 059 8 gusting 15 28.9
2014-Aug-19 21:57 053 6 gusting 13 28.9
2014-Aug-19 21:42 100 7 gusting 14 29.4
2014-Aug-19 21:27 100 10 gusting 16 29.4
2014-Aug-19 21:12 094 10 gusting 14 29.4
2014-Aug-19 20:57 064 9 gusting 16 29.4
2014-Aug-19 20:42 105 10 gusting 18 29.4
2014-Aug-19 20:27 117 8 gusting 14 30.0
2014-Aug-19 20:12 053 12 gusting 18 30.0
2014-Aug-19 19:57 068 10 gusting 18 30.0
2014-Aug-19 19:42 077 8 gusting 15 30.0
2014-Aug-19 19:27 111 7 gusting 19 30.6
2014-Aug-19 19:12 094 13 gusting 19 30.0
2014-Aug-19 18:57 124 11 gusting 17 30.0
2014-Aug-19 18:42 075 7 gusting 14 30.0
2014-Aug-19 18:27 068 10 gusting 17 30.0
2014-Aug-19 18:12 063 8 gusting 13 31.1
2014-Aug-19 17:57 108 8 gusting 16 31.1
2014-Aug-19 17:42 102 11 gusting 17 30.6
2014-Aug-19 17:27 089 12 gusting 19 31.1
2014-Aug-19 17:12 096 11 gusting 16 30.6
2014-Aug-19 16:57 124 13 gusting 18 30.6
2014-Aug-19 16:42 110 7 gusting 15 30.6
2014-Aug-19 16:27 066 8 gusting 13 31.1
2014-Aug-19 16:12 108 10 gusting 19 30.0
2014-Aug-19 15:57 098 8 gusting 15 30.6
2014-Aug-19 15:42 104 10 gusting 17 30.6
2014-Aug-19 15:27 074 9 gusting 15 30.6
2014-Aug-19 15:12 094 13 gusting 19 29.4
2014-Aug-19 14:57 089 10 gusting 18 30.0
2014-Aug-19 14:42 114 9 gusting 16 30.0
2014-Aug-19 14:27 110 8 gusting 19 30.0
2014-Aug-19 14:12 079 7 gusting 13 29.4
2014-Aug-19 13:57 108 7 gusting 14 29.4
2014-Aug-19 13:42 120 13 gusting 18 28.9
2014-Aug-19 13:27 104 11 gusting 19 28.9
2014-Aug-19 13:12 105 7 gusting 16 29.4
2014-Aug-19 12:57 109 9 gusting 15 28.9
2014-Aug-19 12:42 103 8 gusting 18 28.3
2014-Aug-19 12:27 113 8 gusting 13 28.3
2014-Aug-19 12:11 105 9 gusting 13 28.3
2014-Aug-19 11:56 105 8 gusting 17 28.3
2014-Aug-19 11:41 101 7 gusting 14 27.8
2014-Aug-19 11:26 156 4 gusting 7 27.2
2014-Aug-19 11:11 101 6 gusting 10 27.2
2014-Aug-19 10:56 105 5 gusting 8 27.2
2014-Aug-19 10:41 129 6 gusting 8 26.7
2014-Aug-19 10:26 108 3 gusting 8 27.2
2014-Aug-19 10:11 108 5 gusting 8 27.2
2014-Aug-19 09:56 091 6 gusting 12 27.2
2014-Aug-19 09:41 101 6 gusting 12 27.2
2014-Aug-19 09:25 096 5 gusting 9 27.2
2014-Aug-19 09:10 081 5 gusting 11 27.2
2014-Aug-19 08:55 101 3 gusting 11 27.2
2014-Aug-19 08:40 105 3 gusting 6 27.2
2014-Aug-19 08:25 066 6 gusting 10 27.2
2014-Aug-19 08:10 094 4 gusting 10 27.2
2014-Aug-19 07:55 095 7 gusting 12 27.2
2014-Aug-19 07:40 101 3 gusting 9 27.2
2014-Aug-19 07:25 079 5 gusting 9 27.2
2014-Aug-19 07:11 082 6 gusting 10 27.2
2014-Aug-19 06:55 125 4 gusting 11 27.2
2014-Aug-19 06:40 091 5 gusting 10 27.2
2014-Aug-19 06:25 076 5 gusting 9 27.2
2014-Aug-19 06:10 103 6 gusting 12 27.2
2014-Aug-19 05:54 061 6 gusting 10 27.2
2014-Aug-19 05:40 108 8 gusting 11 27.2
2014-Aug-19 05:25 091 6 gusting 13 27.2
2014-Aug-19 05:08 060 6 gusting 11 27.2
2014-Aug-19 04:53 101 6 gusting 11 27.2
2014-Aug-19 04:38 103 6 gusting 13 27.2
2014-Aug-19 04:23 070 7 gusting 14 27.2
2014-Aug-19 04:07 100 7 gusting 14 27.2
2014-Aug-19 03:53 071 6 gusting 16 27.2
2014-Aug-19 03:36 103 8 gusting 13 27.2
2014-Aug-19 03:21 084 7 gusting 17 27.8
2014-Aug-19 03:06 058 9 gusting 16 27.8
2014-Aug-19 02:51 064 8 gusting 15 27.8
2014-Aug-19 02:36 101 7 gusting 16 27.8
2014-Aug-19 02:21 058 9 gusting 16 27.8
2014-Aug-19 02:06 112 9 gusting 15 27.8
2014-Aug-19 01:50 088 7 gusting 14 27.8
2014-Aug-19 01:34 069 7 gusting 15 27.8
2014-Aug-19 01:20 106 6 gusting 14 27.8
2014-Aug-19 01:04 114 6 gusting 15 27.8
2014-Aug-19 00:49 072 9 gusting 14 27.8
2014-Aug-19 00:33 079 9 gusting 17 27.8
2014-Aug-19 00:19 081 8 gusting 14 27.8
2014-Aug-19 00:03 077 6 gusting 13 27.8
2014-Aug-18 23:48 061 8 gusting 14 27.8
2014-Aug-18 23:33 079 8 gusting 13 27.8
2014-Aug-18 23:18 094 6 gusting 13 28.3
2014-Aug-18 23:03 075 6 gusting 13 28.3
2014-Aug-18 22:47 072 8 gusting 16 28.3
2014-Aug-18 22:32 049 6 gusting 14 28.3
2014-Aug-18 22:18 079 9 gusting 14 28.9
2014-Aug-18 21:46 075 6 gusting 19 28.9
2014-Aug-18 21:31 049 7 gusting 13 29.4
2014-Aug-18 21:16 096 11 gusting 19 29.4
2014-Aug-18 21:01 053 10 gusting 18 29.4
2014-Aug-18 20:46 056 9 gusting 17 29.4
2014-Aug-18 20:31 079 11 gusting 16 30.0
2014-Aug-18 20:16 082 10 gusting 18 30.0
2014-Aug-18 20:01 115 10 gusting 18 30.0
2014-Aug-18 19:46 077 11 gusting 20 30.0
2014-Aug-18 19:31 104 12 gusting 20 30.0
2014-Aug-18 19:16 043 11 gusting 15 29.4
2014-Aug-18 19:01 071 10 gusting 18 30.0
2014-Aug-18 18:46 070 12 gusting 19 30.0
2014-Aug-18 18:31 063 6 gusting 19 30.6
2014-Aug-18 18:01 108 10 gusting 19 30.6
2014-Aug-18 17:46 047 10 gusting 17 30.0
2014-Aug-18 17:31 104 10 gusting 19 30.0
2014-Aug-18 17:01 124 10 gusting 19 30.6
2014-Aug-18 16:46 115 13 gusting 23 29.4
2014-Aug-18 16:31 092 9 gusting 20 30.6
2014-Aug-18 16:16 045 11 gusting 15 30.0
2014-Aug-18 16:01 077 11 gusting 19 30.0
2014-Aug-18 15:46 110 13 gusting 21 29.4
2014-Aug-18 15:31 060 13 gusting 19 29.4
2014-Aug-18 15:16 099 14 gusting 21 29.4
2014-Aug-18 15:01 107 11 gusting 19 29.4
2014-Aug-18 14:45 088 10 gusting 17 30.0
2014-Aug-18 14:30 089 10 gusting 22 29.4
2014-Aug-18 14:15 111 10 gusting 19 28.9
2014-Aug-18 14:00 120 13 gusting 19 28.9
2014-Aug-18 13:45 111 13 gusting 17 28.9
2014-Aug-18 13:30 117 10 gusting 15 28.9
2014-Aug-18 13:15 071 8 gusting 14 29.4
2014-Aug-18 13:00 099 9 gusting 16 28.9
2014-Aug-18 12:45 111 12 gusting 15 28.3
2014-Aug-18 12:00 117 9 gusting 16 28.3
2014-Aug-18 11:45 068 7 gusting 17 28.3
2014-Aug-18 11:30 100 6 gusting 13 27.8
2014-Aug-18 11:15 090 8 gusting 13 27.8
2014-Aug-18 11:00 086 8 gusting 13 27.8
2014-Aug-18 10:45 107 6 gusting 11 27.2
2014-Aug-18 10:30 093 6 gusting 9 27.2
2014-Aug-18 10:15 082 6 gusting 12 27.2
2014-Aug-18 10:00 084 7 gusting 14 27.2
2014-Aug-18 09:45 116 8 gusting 15 27.2
2014-Aug-18 09:30 099 8 gusting 14 27.2
2014-Aug-18 09:15 105 8 gusting 13 27.2
2014-Aug-18 09:00 117 7 gusting 14 27.2
2014-Aug-18 08:45 108 10 gusting 15 27.2
2014-Aug-18 08:30 110 9 gusting 18 27.8
2014-Aug-18 08:15 094 8 gusting 16 27.8
2014-Aug-18 08:00 096 4 gusting 13 27.8
2014-Aug-18 07:45 077 7 gusting 15 27.8
2014-Aug-18 07:30 108 9 gusting 15 27.8
2014-Aug-18 07:15 110 8 gusting 13 27.8
2014-Aug-18 07:00 108 8 gusting 17 27.8
2014-Aug-18 06:45 100 5 gusting 15 27.8
2014-Aug-18 06:30 100 8 gusting 19 27.8
2014-Aug-18 06:15 106 11 gusting 18 27.8
2014-Aug-18 06:00 086 9 gusting 15 27.8
2014-Aug-18 05:45 117 7 gusting 16 27.8
2014-Aug-18 04:44 088 7 gusting 17 27.8
2014-Aug-18 04:29 084 7 gusting 16 27.8
2014-Aug-18 04:14 120 6 gusting 14 27.8